createdAt,value
2023-02-23T00:17:37.356Z,3.59
2023-02-23T00:24:38.151Z,3.46
2023-02-23T00:27:06.670Z,3.40
2023-02-23T00:29:39.570Z,3.34
2023-02-23T00:32:07.733Z,3.32
2023-02-23T00:34:36.948Z,3.30
2023-02-23T00:37:05.335Z,3.27
2023-02-23T00:39:32.924Z,3.24
2023-02-23T00:42:03.818Z,3.21
2023-02-23T00:44:33.968Z,3.18
2023-02-23T00:47:02.275Z,3.16
2023-02-23T00:49:29.845Z,3.17
2023-02-23T00:51:57.688Z,3.17
2023-02-23T00:54:26.153Z,3.15
2023-02-23T00:56:53.724Z,3.13
2023-02-23T00:59:23.665Z,3.07
2023-02-23T01:01:52.599Z,3.02
2023-02-23T01:04:23.241Z,2.94
2023-02-23T01:06:51.057Z,2.91
2023-02-23T01:09:28.104Z,2.88
2023-02-23T01:11:57.482Z,2.86
2023-02-23T01:14:25.198Z,2.82
2023-02-23T01:16:52.859Z,2.80
2023-02-23T01:19:20.676Z,2.76
2023-02-23T01:21:49.799Z,2.71
2023-02-23T01:24:18.459Z,2.71
2023-02-23T01:26:46.384Z,2.72
2023-02-23T01:29:16.890Z,2.71
2023-02-23T01:31:47.691Z,2.67
2023-02-23T01:34:21.794Z,2.62
2023-02-23T01:36:49.869Z,2.58
2023-02-23T01:39:20.009Z,2.57
2023-02-23T01:41:48.496Z,2.55
2023-02-23T01:44:15.981Z,2.50
2023-02-23T01:46:46.106Z,2.48
2023-02-23T01:49:20.278Z,2.49
2023-02-23T01:52:03.069Z,2.50
2023-02-23T01:54:36.437Z,2.49
2023-02-23T01:57:06.182Z,2.49
2023-02-23T01:59:39.203Z,2.46
2023-02-23T02:02:07.786Z,2.47
2023-02-23T02:04:44.509Z,2.47
2023-02-23T02:07:14.839Z,2.43
2023-02-23T02:10:04.192Z,2.38
2023-02-23T02:12:31.960Z,2.32
2023-02-23T02:15:00.795Z,2.32
2023-02-23T02:17:45.229Z,2.35
2023-02-23T02:20:33.924Z,2.37
2023-02-23T02:23:47.893Z,2.36
2023-02-23T02:26:23.016Z,2.39
2023-02-23T02:29:05.557Z,2.40
2023-02-23T02:31:49.817Z,2.33
2023-02-23T02:34:29.386Z,2.26
2023-02-23T02:37:24.588Z,2.23
2023-02-23T02:40:18.214Z,2.21
2023-02-23T02:43:11.242Z,2.15
2023-02-23T02:45:38.770Z,2.14
2023-02-23T02:48:46.482Z,2.12
2023-02-23T02:51:26.074Z,2.07
2023-02-23T02:54:07.032Z,2.01
2023-02-23T02:56:40.510Z,1.98
2023-02-23T02:59:33.554Z,1.97
2023-02-23T03:02:21.235Z,1.97
2023-02-23T03:05:07.414Z,1.92
2023-02-23T03:08:17.217Z,1.89
2023-02-23T03:11:10.905Z,1.89
2023-02-23T03:14:19.248Z,1.90
2023-02-23T03:17:24.025Z,1.89
2023-02-23T03:20:16.310Z,1.87
2023-02-23T03:23:09.914Z,1.89
2023-02-23T03:26:27.852Z,1.86
2023-02-23T03:29:28.211Z,1.81
2023-02-23T03:32:25.468Z,1.79
2023-02-23T03:35:39.869Z,1.73
2023-02-23T03:38:33.539Z,1.67
2023-02-23T03:41:21.423Z,1.67
2023-02-23T03:44:13.513Z,1.63
2023-02-23T03:47:02.126Z,1.64
2023-02-23T03:49:53.341Z,1.62
2023-02-23T03:52:48.955Z,1.61
2023-02-23T03:55:45.274Z,1.57
2023-02-23T03:58:36.838Z,1.52
2023-02-23T04:01:26.518Z,1.53
2023-02-23T04:04:16.826Z,1.50
2023-02-23T04:07:06.648Z,1.48
2023-02-23T04:09:53.891Z,1.48
2023-02-23T04:12:48.108Z,1.43
2023-02-23T04:15:37.295Z,1.41
2023-02-23T04:18:06.862Z,1.41
2023-02-23T04:20:34.539Z,1.41
2023-02-23T04:23:02.262Z,1.41
2023-02-23T04:25:30.576Z,1.41
2023-02-23T04:27:58.144Z,1.40
2023-02-23T04:30:26.089Z,1.36
2023-02-23T04:32:53.942Z,1.35
2023-02-23T04:35:22.098Z,1.38
2023-02-23T04:37:49.581Z,1.41
2023-02-23T04:40:17.396Z,1.37
2023-02-23T04:42:44.936Z,1.37
2023-02-23T04:45:12.643Z,1.40
2023-02-23T04:47:40.232Z,1.42
2023-02-23T04:50:08.504Z,1.42
2023-02-23T04:52:37.683Z,1.38
2023-02-23T04:55:12.952Z,1.35
2023-02-23T04:57:40.465Z,1.32
2023-02-23T05:00:08.646Z,1.29
2023-02-23T05:02:36.537Z,1.26
2023-02-23T05:05:04.383Z,1.28
2023-02-23T05:07:32.007Z,1.31
2023-02-23T05:09:59.885Z,1.28
2023-02-23T05:12:27.475Z,1.25
2023-02-23T05:14:54.987Z,1.20
2023-02-23T05:17:22.617Z,1.19
2023-02-23T05:19:50.270Z,1.17
2023-02-23T05:22:18.043Z,1.16
2023-02-23T05:24:45.637Z,1.19
2023-02-23T05:27:16.062Z,1.17
2023-02-23T05:29:43.830Z,1.12
2023-02-23T05:32:11.501Z,1.09
2023-02-23T05:34:39.276Z,1.09
2023-02-23T05:37:06.964Z,1.08
2023-02-23T05:39:34.534Z,1.05
2023-02-23T05:42:02.086Z,1.04
2023-02-23T05:44:30.018Z,1.03
2023-02-23T05:46:57.602Z,1.03
2023-02-23T05:49:25.195Z,1.02
2023-02-23T05:51:52.754Z,1.02
2023-02-23T05:54:20.391Z,0.99
2023-02-23T05:56:47.882Z,0.98
2023-02-23T05:59:17.430Z,0.90
2023-02-23T06:01:45.239Z,0.85
2023-02-23T06:04:14.181Z,0.83
2023-02-23T06:06:41.725Z,0.81
2023-02-23T06:09:09.370Z,0.79
2023-02-23T06:11:37.059Z,0.77
2023-02-23T06:14:04.628Z,0.75
2023-02-23T06:16:32.728Z,0.73
2023-02-23T06:19:00.330Z,0.70
2023-02-23T06:21:27.915Z,0.73
2023-02-23T06:23:55.572Z,0.74
2023-02-23T06:26:23.170Z,0.70
2023-02-23T06:28:50.713Z,0.67
2023-02-23T06:31:18.514Z,0.69
2023-02-23T06:33:46.326Z,0.71
2023-02-23T06:36:14.305Z,0.69
2023-02-23T06:38:42.021Z,0.68
2023-02-23T06:41:10.806Z,0.67
2023-02-23T06:43:38.506Z,0.67
2023-02-23T06:46:06.451Z,0.67
2023-02-23T06:48:34.041Z,0.68
2023-02-23T06:51:01.901Z,0.70
2023-02-23T06:53:31.041Z,0.70
2023-02-23T06:55:58.607Z,0.69
2023-02-23T06:58:26.301Z,0.67
2023-02-23T07:00:56.888Z,0.66
2023-02-23T07:03:24.682Z,0.65
2023-02-23T07:05:53.946Z,0.59
2023-02-23T07:08:21.560Z,0.58
2023-02-23T07:10:49.124Z,0.57
2023-02-23T07:13:17.029Z,0.59
2023-02-23T07:15:44.718Z,0.59
2023-02-23T07:18:12.275Z,0.61
2023-02-23T07:20:39.807Z,0.64
2023-02-23T07:23:08.009Z,0.64
2023-02-23T07:25:35.840Z,0.65
2023-02-23T07:28:03.575Z,0.65
2023-02-23T07:30:31.366Z,0.69
2023-02-23T07:32:59.019Z,0.74
2023-02-23T07:35:26.562Z,0.77
2023-02-23T07:37:55.966Z,0.82
2023-02-23T07:40:23.738Z,0.84
2023-02-23T07:42:51.329Z,0.88
2023-02-23T07:45:19.320Z,0.91
2023-02-23T07:47:46.848Z,0.95
2023-02-23T07:50:14.594Z,0.95
2023-02-23T07:52:44.630Z,0.98
2023-02-23T07:55:12.534Z,1.02
2023-02-23T07:57:40.103Z,1.06
2023-02-23T08:00:08.609Z,1.08
2023-02-23T08:02:42.090Z,1.13
2023-02-23T08:05:09.897Z,1.17
2023-02-23T08:07:37.485Z,1.19
2023-02-23T08:10:05.365Z,1.23
2023-02-23T08:12:34.347Z,1.27
2023-02-23T08:15:02.862Z,1.30
2023-02-23T08:17:30.936Z,1.37
2023-02-23T08:19:58.597Z,1.45
2023-02-23T08:22:26.970Z,1.52
2023-02-23T08:24:54.597Z,1.61
2023-02-23T08:27:22.229Z,1.69
2023-02-23T08:29:52.677Z,1.75
2023-02-23T08:32:20.686Z,1.82
2023-02-23T08:34:48.734Z,1.90
2023-02-23T08:37:16.293Z,1.98
2023-02-23T08:39:44.221Z,2.07
2023-02-23T08:42:11.964Z,2.20
2023-02-23T08:44:39.503Z,2.29
2023-02-23T08:47:07.101Z,2.41
2023-02-23T08:49:34.644Z,2.52
2023-02-23T08:52:02.204Z,2.65
2023-02-23T08:54:30.651Z,2.79
2023-02-23T08:56:58.504Z,3.46
2023-02-23T08:59:27.197Z,4.54
2023-02-23T09:01:54.790Z,5.56
2023-02-23T09:04:22.417Z,6.36
2023-02-23T09:06:50.289Z,7.23
2023-02-23T09:09:18.198Z,7.89
2023-02-23T09:11:45.831Z,7.67
2023-02-23T09:14:13.396Z,7.25
2023-02-23T09:16:41.051Z,6.81
2023-02-23T09:19:08.622Z,6.42
2023-02-23T09:21:36.268Z,6.05
2023-02-23T09:24:04.162Z,5.76
2023-02-23T09:26:33.448Z,5.55
2023-02-23T09:29:01.943Z,5.39
2023-02-23T09:31:29.558Z,5.28
2023-02-23T09:33:57.525Z,5.22
2023-02-23T09:36:26.548Z,5.15
2023-02-23T09:38:57.245Z,5.09
2023-02-23T09:42:00.440Z,5.05
2023-02-23T09:44:57.151Z,5.08
2023-02-23T09:47:40.599Z,5.14
2023-02-23T09:50:22.846Z,5.18
2023-02-23T09:53:04.911Z,5.24
2023-02-23T09:55:33.080Z,5.28
2023-02-23T09:58:08.132Z,5.33
2023-02-23T10:00:44.288Z,5.43
2023-02-23T10:03:15.865Z,5.51
2023-02-23T10:05:48.534Z,5.60
2023-02-23T10:08:29.847Z,5.72
2023-02-23T10:11:09.909Z,5.94
2023-02-23T10:13:57.871Z,6.84
2023-02-23T10:16:45.681Z,8.37
2023-02-23T10:19:25.488Z,9.63
2023-02-23T10:22:06.598Z,10.62
2023-02-23T10:24:39.220Z,11.49
2023-02-23T10:27:16.623Z,12.32
2023-02-23T10:29:54.867Z,13.18
2023-02-23T10:32:49.337Z,13.66
2023-02-23T10:35:21.144Z,13.48
2023-02-23T10:37:51.013Z,13.02
2023-02-23T10:40:24.360Z,12.46
2023-02-23T10:42:52.869Z,12.06
2023-02-23T10:45:23.364Z,11.74
2023-02-23T10:48:07.504Z,11.45
2023-02-23T10:50:39.303Z,11.23
2023-02-23T10:53:17.372Z,11.03
2023-02-23T10:55:46.485Z,10.91
2023-02-23T10:58:20.909Z,10.88
2023-02-23T11:01:03.119Z,10.82
2023-02-23T11:03:36.179Z,10.72
2023-02-23T11:06:04.285Z,10.65
2023-02-23T11:08:34.366Z,10.68
2023-02-23T11:11:16.076Z,10.71
2023-02-23T11:13:47.087Z,10.68
2023-02-23T11:16:38.472Z,10.63
2023-02-23T11:19:18.870Z,10.53
2023-02-23T11:21:52.630Z,10.44
2023-02-23T11:24:26.501Z,10.47
2023-02-23T11:27:03.910Z,10.59
2023-02-23T11:29:47.447Z,10.79
2023-02-23T11:32:20.984Z,11.00
2023-02-23T11:35:28.686Z,11.16
2023-02-23T11:37:57.254Z,11.16
2023-02-23T11:40:32.472Z,11.12
2023-02-23T11:43:07.364Z,11.09
2023-02-23T11:45:47.729Z,10.88
2023-02-23T11:48:22.368Z,10.69
2023-02-23T11:50:50.599Z,10.59
2023-02-23T11:53:28.563Z,10.53
2023-02-23T11:56:02.668Z,10.61
2023-02-23T11:58:37.195Z,10.57
2023-02-23T12:01:17.215Z,10.50
2023-02-23T12:03:49.527Z,10.55
2023-02-23T12:06:38.101Z,10.71
2023-02-23T12:09:26.789Z,10.87
2023-02-23T12:11:59.161Z,10.85
2023-02-23T12:14:27.097Z,10.74
2023-02-23T12:17:04.228Z,10.57
2023-02-23T12:19:49.313Z,10.34
2023-02-23T12:22:30.218Z,10.13
2023-02-23T12:25:18.544Z,9.97
2023-02-23T12:28:42.030Z,9.79
2023-02-23T12:31:34.593Z,9.62
2023-02-23T12:34:14.906Z,9.49
2023-02-23T12:36:57.850Z,9.37
2023-02-23T12:39:36.295Z,9.30
2023-02-23T12:42:34.866Z,9.24
2023-02-23T12:45:06.890Z,9.15
2023-02-23T12:47:41.364Z,9.02
2023-02-23T12:50:17.092Z,8.88
2023-02-23T12:52:53.904Z,8.82
2023-02-23T12:55:38.495Z,8.87
2023-02-23T12:58:24.468Z,8.93
2023-02-23T13:00:59.036Z,8.94
2023-02-23T13:03:43.562Z,8.91
2023-02-23T13:06:31.061Z,8.91
2023-02-23T13:09:13.910Z,8.87
2023-02-23T13:12:29.987Z,8.81
2023-02-23T13:15:23.771Z,8.77
2023-02-23T13:17:56.392Z,8.73
2023-02-23T13:20:45.574Z,8.70
2023-02-23T13:23:20.976Z,8.68
2023-02-23T13:26:13.076Z,8.62
2023-02-23T13:29:03.320Z,8.63
2023-02-23T13:31:42.671Z,8.59
2023-02-23T13:34:16.640Z,8.54
2023-02-23T13:36:46.027Z,8.52
2023-02-23T13:39:33.940Z,8.52
2023-02-23T13:42:32.233Z,8.56
2023-02-23T13:45:03.097Z,8.61
2023-02-23T13:47:53.234Z,8.68
2023-02-23T13:50:56.840Z,8.77
2023-02-23T13:53:38.490Z,8.88
2023-02-23T13:56:15.186Z,9.06
2023-02-23T13:58:51.239Z,9.40
2023-02-23T14:01:23.614Z,9.81
2023-02-23T14:03:57.905Z,10.19
2023-02-23T14:06:28.746Z,10.46
2023-02-23T14:09:08.404Z,10.71
2023-02-23T14:11:42.315Z,10.81
2023-02-23T14:14:14.654Z,10.88
2023-02-23T14:16:43.006Z,10.85
2023-02-23T14:19:38.714Z,10.75
2023-02-23T14:22:12.422Z,10.59
2023-02-23T14:24:40.297Z,10.43
2023-02-23T14:27:41.449Z,10.25
2023-02-23T14:30:13.015Z,10.04
2023-02-23T14:32:46.241Z,9.86
2023-02-23T14:35:32.379Z,9.72
2023-02-23T14:38:38.824Z,9.63
2023-02-23T14:41:13.702Z,9.54
2023-02-23T14:43:44.360Z,9.46
2023-02-23T14:46:18.741Z,9.42
2023-02-23T14:49:01.616Z,9.38
2023-02-23T14:52:06.376Z,9.34
2023-02-23T14:54:39.237Z,9.33
2023-02-23T14:57:27.484Z,9.35
2023-02-23T14:59:58.273Z,9.39
2023-02-23T15:02:29.257Z,9.40
2023-02-23T15:04:57.290Z,9.41
2023-02-23T15:07:31.101Z,9.42
2023-02-23T15:10:01.058Z,9.41
2023-02-23T15:12:34.963Z,9.40
2023-02-23T15:15:06.289Z,9.35
2023-02-23T15:17:35.149Z,9.31
2023-02-23T15:22:59.357Z,9.30
2023-02-23T15:25:35.774Z,9.31
2023-02-23T15:28:23.669Z,9.27
2023-02-23T15:30:53.514Z,9.27
2023-02-23T15:33:28.798Z,9.29
2023-02-23T15:35:59.488Z,9.27
2023-02-23T15:38:46.478Z,9.27
2023-02-23T15:41:34.696Z,9.24
2023-02-23T15:44:44.045Z,9.19
2023-02-23T15:47:22.932Z,9.20
2023-02-23T15:49:51.002Z,9.19
2023-02-23T15:52:22.667Z,9.17
2023-02-23T15:55:06.752Z,9.18
2023-02-23T15:57:47.129Z,9.17
2023-02-23T16:00:27.387Z,9.15
2023-02-23T16:02:57.818Z,9.11
2023-02-23T16:05:27.034Z,9.09
2023-02-23T16:08:22.950Z,9.04
2023-02-23T16:10:57.590Z,9.01
2023-02-23T16:13:27.378Z,9.01
2023-02-23T16:15:55.967Z,9.03
2023-02-23T16:18:34.951Z,9.03
2023-02-23T16:21:04.685Z,9.02
2023-02-23T16:23:41.550Z,9.00
2023-02-23T16:26:12.952Z,8.99
2023-02-23T16:28:43.760Z,8.97
2023-02-23T16:31:13.531Z,8.98
2023-02-23T16:33:51.137Z,8.97
2023-02-23T16:36:22.872Z,8.96
2023-02-23T16:39:00.333Z,8.96
2023-02-23T16:41:30.954Z,8.97
2023-02-23T16:44:01.240Z,8.96
2023-02-23T16:46:53.818Z,8.94
2023-02-23T16:49:23.535Z,8.92
2023-02-23T16:51:52.593Z,8.87
2023-02-23T16:54:20.147Z,8.87
2023-02-23T16:56:49.470Z,8.85
2023-02-23T16:59:18.892Z,8.84
2023-02-23T17:01:49.675Z,8.81
2023-02-23T17:04:19.383Z,8.78
2023-02-23T17:06:55.736Z,8.77
2023-02-23T17:09:24.353Z,8.76
2023-02-23T17:11:51.919Z,8.76
2023-02-23T17:14:25.689Z,8.76
2023-02-23T17:16:53.661Z,8.77
2023-02-23T17:19:23.575Z,8.74
2023-02-23T17:21:52.238Z,8.75
2023-02-23T17:24:19.838Z,8.75
2023-02-23T17:26:47.363Z,8.74
2023-02-23T17:29:14.956Z,8.75
2023-02-23T17:31:42.768Z,8.77
2023-02-23T17:34:10.782Z,8.77
2023-02-23T17:36:38.669Z,8.76
2023-02-23T17:39:09.570Z,8.78
2023-02-23T17:41:37.189Z,8.79
2023-02-23T17:44:05.929Z,8.78
2023-02-23T17:46:33.564Z,8.80
2023-02-23T17:49:01.133Z,8.81
2023-02-23T17:51:29.058Z,8.80
2023-02-23T17:53:56.757Z,8.78
2023-02-23T17:56:24.914Z,8.78
2023-02-23T17:58:52.572Z,8.77
2023-02-23T18:01:20.439Z,8.75
2023-02-23T18:03:49.967Z,8.75
2023-02-23T18:06:17.693Z,8.77
2023-02-23T18:08:45.531Z,8.78
2023-02-23T18:11:18.816Z,8.78
2023-02-23T18:13:48.257Z,8.76
2023-02-23T18:16:16.339Z,8.76
2023-02-23T18:18:46.597Z,8.76
2023-02-23T18:21:20.179Z,8.77
2023-02-23T18:23:50.161Z,8.80
2023-02-23T18:26:21.821Z,8.80
2023-02-23T18:28:51.260Z,8.80
2023-02-23T18:31:22.715Z,8.81
2023-02-23T18:33:54.047Z,8.81
2023-02-23T18:36:26.286Z,8.83
2023-02-23T18:38:55.751Z,8.84
2023-02-23T18:41:24.309Z,8.86
2023-02-23T18:43:51.937Z,8.86
2023-02-23T18:46:19.661Z,8.87
2023-02-23T18:48:50.480Z,8.87
2023-02-23T18:51:19.901Z,8.88
2023-02-23T18:53:49.451Z,8.89
2023-02-23T18:56:23.313Z,8.89
2023-02-23T18:58:56.735Z,8.90
2023-02-23T19:01:27.902Z,8.89
2023-02-23T19:03:58.893Z,8.89
2023-02-23T19:06:27.722Z,8.90
2023-02-23T19:08:57.384Z,8.91
2023-02-23T19:11:28.483Z,8.91
2023-02-23T19:13:58.072Z,8.89
2023-02-23T19:16:28.019Z,8.90
2023-02-23T19:18:55.831Z,8.90
2023-02-23T19:21:23.590Z,8.89
2023-02-23T19:23:52.819Z,8.89
2023-02-23T19:26:21.576Z,8.89
2023-02-23T19:28:49.261Z,8.88
2023-02-23T19:31:21.192Z,8.90
2023-02-23T19:33:50.274Z,8.91
2023-02-23T19:36:21.306Z,8.93
2023-02-23T19:38:49.238Z,8.94
2023-02-23T19:41:19.919Z,8.96
2023-02-23T19:43:48.002Z,8.99
2023-02-23T19:46:17.393Z,9.00
2023-02-23T19:48:52.024Z,9.03
2023-02-23T19:51:20.794Z,9.04
2023-02-23T19:53:48.895Z,9.05
2023-02-23T19:56:17.274Z,9.07
2023-02-23T19:58:46.865Z,9.06
2023-02-23T20:01:17.061Z,9.07
2023-02-23T20:03:49.664Z,9.08
2023-02-23T20:06:18.768Z,9.09
2023-02-23T20:08:48.332Z,9.10
2023-02-23T20:11:16.125Z,9.10
2023-02-23T20:13:43.862Z,9.10
2023-02-23T20:16:13.341Z,9.07
2023-02-23T20:18:43.316Z,8.99
2023-02-23T20:21:13.004Z,8.96
2023-02-23T20:23:41.985Z,8.95
2023-02-23T20:26:12.800Z,8.94
2023-02-23T20:28:41.452Z,8.92
2023-02-23T20:31:21.831Z,8.91
2023-02-23T20:33:50.420Z,8.90
2023-02-23T20:36:19.321Z,8.88
2023-02-23T20:38:47.307Z,8.88
2023-02-23T20:41:14.945Z,8.90
2023-02-23T20:43:43.971Z,8.92
2023-02-23T20:46:16.945Z,8.94
2023-02-23T20:48:44.617Z,8.94
2023-02-23T20:51:14.970Z,8.95
2023-02-23T20:53:45.340Z,8.94
2023-02-23T20:56:16.388Z,8.94
2023-02-23T20:58:44.750Z,8.94
2023-02-23T21:01:18.887Z,8.93
2023-02-23T21:03:47.002Z,8.93
2023-02-23T21:06:16.218Z,8.92
2023-02-23T21:08:46.298Z,8.92
2023-02-23T21:11:13.954Z,8.93
2023-02-23T21:13:41.801Z,8.92
2023-02-23T21:16:14.887Z,8.92
2023-02-23T21:18:42.894Z,8.91
2023-02-23T21:21:11.033Z,8.92
2023-02-23T21:23:40.328Z,8.91
2023-02-23T21:26:14.290Z,8.93
2023-02-23T21:28:43.831Z,8.94
2023-02-23T21:31:13.433Z,8.95
2023-02-23T21:33:43.260Z,8.94
2023-02-23T21:36:12.634Z,8.96
2023-02-23T21:38:42.310Z,8.97
2023-02-23T21:41:15.373Z,8.95
2023-02-23T21:43:44.215Z,8.96
2023-02-23T21:46:16.687Z,8.95
2023-02-23T21:48:44.823Z,8.96
2023-02-23T21:51:14.555Z,8.95
2023-02-23T21:53:44.085Z,8.94
2023-02-23T21:56:23.364Z,8.92
2023-02-23T21:58:56.386Z,8.91
2023-02-23T22:01:27.570Z,8.92
2023-02-23T22:03:56.621Z,8.91
2023-02-23T22:06:27.192Z,8.90
2023-02-23T22:08:55.960Z,8.87
2023-02-23T22:11:28.640Z,8.87
2023-02-23T22:13:59.211Z,8.83
2023-02-23T22:16:33.063Z,8.82
2023-02-23T22:19:04.252Z,8.80
2023-02-23T22:21:37.778Z,8.81
2023-02-23T22:24:07.056Z,8.81
2023-02-23T22:27:56.933Z,8.81
2023-02-23T22:30:28.470Z,8.80
2023-02-23T22:32:56.412Z,8.80
2023-02-23T22:35:24.478Z,8.78
2023-02-23T22:37:52.182Z,8.77
2023-02-23T22:40:19.826Z,8.76
2023-02-23T22:42:50.152Z,8.74
2023-02-23T22:45:18.266Z,8.71
2023-02-23T22:47:46.138Z,8.69
2023-02-23T22:50:18.307Z,8.66
2023-02-23T22:52:47.194Z,8.65
2023-02-23T22:55:15.131Z,8.61
2023-02-23T22:57:43.328Z,8.59
2023-02-23T23:00:14.790Z,8.59
2023-02-23T23:02:42.750Z,8.56
2023-02-23T23:05:12.875Z,8.56
2023-02-23T23:07:40.836Z,8.55
2023-02-23T23:10:09.726Z,8.53
2023-02-23T23:12:38.146Z,8.52
2023-02-23T23:15:15.024Z,8.52
2023-02-23T23:17:50.352Z,8.52
2023-02-23T23:20:25.912Z,8.51
2023-02-23T23:22:53.889Z,8.52
2023-02-23T23:25:23.329Z,8.54
2023-02-23T23:27:54.493Z,8.54
2023-02-23T23:30:26.293Z,8.55
2023-02-23T23:32:54.458Z,8.56
2023-02-23T23:35:23.379Z,8.60
2023-02-23T23:37:51.862Z,8.62
2023-02-23T23:40:24.743Z,8.66
2023-02-23T23:42:53.273Z,8.67
2023-02-23T23:45:24.437Z,8.70
2023-02-23T23:47:52.434Z,8.72
2023-02-23T23:50:26.961Z,8.75
2023-02-23T23:52:55.128Z,8.77
2023-02-23T23:55:22.979Z,8.81
2023-02-23T23:57:50.933Z,8.82
